createdAt,value
2018-07-21T09:47:33.584Z,52.50
2018-07-21T09:50:03.968Z,51.20
2018-07-21T09:52:35.151Z,50.60
2018-07-21T09:55:05.894Z,49.10
2018-07-21T09:57:36.709Z,47.10
2018-07-21T10:00:10.252Z,45.10
2018-07-21T10:02:49.269Z,46.00
2018-07-21T10:05:19.792Z,46.20
2018-07-21T10:07:55.247Z,46.40
2018-07-21T10:12:55.554Z,43.80
2018-07-21T10:15:26.338Z,42.70
2018-07-21T10:17:56.533Z,42.60
2018-07-21T10:20:28.861Z,42.70
2018-07-21T10:22:59.898Z,42.00
2018-07-21T10:25:38.811Z,41.50
2018-07-21T10:28:21.251Z,40.80
2018-07-21T10:30:52.654Z,41.80
2018-07-21T10:33:23.550Z,42.90
2018-07-21T10:38:25.698Z,45.10
2018-07-21T10:40:57.805Z,45.60
2018-07-21T10:43:30.157Z,46.30
2018-07-21T10:46:00.356Z,46.50
2018-07-21T10:48:30.672Z,46.00
2018-07-21T10:51:00.957Z,45.90
2018-07-21T10:53:32.873Z,45.80
2018-07-21T10:56:04.246Z,46.10
2018-07-21T10:58:36.119Z,47.00
2018-07-21T11:01:06.403Z,45.90
2018-07-21T11:03:37.420Z,46.20
2018-07-21T11:06:08.217Z,45.40
2018-07-21T11:08:43.554Z,44.90
2018-07-21T11:11:13.738Z,44.60
2018-07-21T11:13:45.848Z,44.80
2018-07-21T11:16:16.029Z,45.00
2018-07-21T11:18:47.805Z,45.10
2018-07-21T11:21:18.250Z,45.70
2018-07-21T11:23:49.087Z,43.90
2018-07-21T11:26:19.405Z,43.60
2018-07-21T11:28:49.998Z,44.70
2018-07-21T11:31:20.253Z,44.30
2018-07-21T11:36:20.544Z,44.50
2018-07-21T11:38:52.572Z,44.10
2018-07-21T11:41:23.067Z,43.40
2018-07-21T11:43:55.674Z,42.90
2018-07-21T11:46:26.098Z,42.60
2018-07-21T11:51:28.069Z,41.90
2018-07-21T11:56:29.424Z,42.40
2018-07-21T11:59:00.295Z,41.60
2018-07-21T12:01:30.156Z,42.00
2018-07-21T12:04:01.510Z,40.00
2018-07-21T12:06:31.780Z,41.10
2018-07-21T12:09:03.215Z,39.10
2018-07-21T12:11:33.394Z,38.50
2018-07-21T12:14:04.162Z,37.80
2018-07-21T12:16:34.929Z,38.20
2018-07-21T12:19:07.387Z,38.10
2018-07-21T12:21:38.078Z,37.60
2018-07-21T12:24:10.199Z,38.00
2018-07-21T12:26:41.440Z,37.00
2018-07-21T12:29:13.193Z,37.70
2018-07-21T12:31:54.428Z,37.90
2018-07-21T12:34:26.231Z,38.10
2018-07-21T12:36:56.993Z,36.80
2018-07-21T12:39:28.378Z,37.70
2018-07-21T12:41:58.604Z,36.60
2018-07-21T12:44:29.402Z,37.80
2018-07-21T12:47:00.861Z,35.70
2018-07-21T12:49:38.248Z,36.50
2018-07-21T12:52:08.523Z,37.50
2018-07-21T12:54:39.238Z,36.30
2018-07-21T13:02:10.535Z,36.00
2018-07-21T13:04:42.276Z,35.80
2018-07-21T13:12:17.453Z,35.80
2018-07-21T13:14:47.957Z,35.50
2018-07-21T13:17:18.720Z,34.60
2018-07-21T13:19:49.930Z,34.90
2018-07-21T13:22:20.457Z,34.60
2018-07-21T13:24:52.005Z,35.00
2018-07-21T13:27:22.326Z,34.60
2018-07-21T13:29:52.962Z,35.20
2018-07-21T13:32:23.581Z,34.20
2018-07-21T13:35:01.847Z,33.90
2018-07-21T13:37:32.137Z,34.20
2018-07-21T13:40:12.451Z,34.50
2018-07-21T13:42:43.002Z,34.10
2018-07-21T13:45:14.634Z,33.60
2018-07-21T13:50:18.183Z,33.10
2018-07-21T13:52:48.278Z,32.40
2018-07-21T13:55:18.832Z,31.80
2018-07-21T13:57:53.148Z,33.00
2018-07-21T14:00:28.490Z,32.70
2018-07-21T14:02:59.344Z,32.20
2018-07-21T14:08:01.247Z,33.50
2018-07-21T14:10:32.397Z,32.50
2018-07-21T14:13:03.877Z,32.30
2018-07-21T14:15:34.866Z,33.50
2018-07-21T14:18:04.964Z,32.50
2018-07-21T14:20:35.241Z,33.40
2018-07-21T14:23:06.683Z,33.00
2018-07-21T14:25:37.585Z,32.60
2018-07-21T14:28:09.109Z,32.60
2018-07-21T14:30:49.063Z,32.60
2018-07-21T14:33:19.399Z,33.20
2018-07-21T14:40:52.747Z,32.60
2018-07-21T14:43:23.390Z,32.10
2018-07-21T14:45:54.311Z,32.20
2018-07-21T14:48:25.936Z,32.60
2018-07-21T14:50:59.667Z,34.00
2018-07-21T14:53:32.197Z,34.30
2018-07-21T14:56:02.591Z,32.50
2018-07-21T14:58:33.658Z,31.50
2018-07-21T15:01:04.312Z,33.20
2018-07-21T15:03:35.612Z,33.60
2018-07-21T15:06:06.316Z,33.60
2018-07-21T15:11:06.575Z,32.10
2018-07-21T15:13:36.878Z,32.00
2018-07-21T15:18:39.603Z,33.50
2018-07-21T15:23:40.844Z,32.20
2018-07-21T15:26:10.985Z,31.70
2018-07-21T15:31:10.820Z,33.20
2018-07-21T15:33:41.254Z,33.00
2018-07-21T15:36:11.872Z,32.50
2018-07-21T15:38:41.773Z,33.00
2018-07-21T15:41:13.749Z,33.10
2018-07-21T15:43:44.332Z,33.90
2018-07-21T15:46:14.726Z,33.40
2018-07-21T15:48:44.916Z,33.60
2018-07-21T15:51:16.396Z,33.60
2018-07-21T15:53:46.318Z,33.80
2018-07-21T15:56:16.533Z,33.80
2018-07-21T15:58:46.548Z,34.30
2018-07-21T16:01:16.482Z,34.20
2018-07-21T16:03:47.467Z,34.70
2018-07-21T16:06:17.691Z,35.60
2018-07-21T16:08:47.799Z,35.30
2018-07-21T16:11:18.129Z,34.70
2018-07-21T16:13:49.171Z,34.80
2018-07-21T16:16:19.144Z,35.50
2018-07-21T16:18:49.972Z,35.00
2018-07-21T16:21:20.159Z,35.70
2018-07-21T16:23:50.530Z,35.40
2018-07-21T16:26:35.614Z,35.50
2018-07-21T16:29:30.847Z,35.90
2018-07-21T16:32:27.124Z,35.80
2018-07-21T16:34:59.879Z,35.80
2018-07-21T16:37:31.141Z,36.70
2018-07-21T16:40:02.867Z,36.60
2018-07-21T16:42:32.978Z,37.00
2018-07-21T16:45:04.608Z,37.70
2018-07-21T16:47:35.499Z,38.50
2018-07-21T16:50:05.952Z,38.20
2018-07-21T16:52:37.202Z,38.90
2018-07-21T16:55:07.443Z,38.90
2018-07-21T16:57:38.497Z,39.30
2018-07-21T17:00:09.303Z,39.60
2018-07-21T17:05:09.178Z,39.60
2018-07-21T17:07:39.428Z,39.10
2018-07-21T17:10:12.185Z,38.60
2018-07-21T17:12:54.160Z,39.20
2018-07-21T17:15:25.545Z,38.80
2018-07-21T17:17:56.156Z,38.90
2018-07-21T17:20:30.924Z,38.60
2018-07-21T17:23:05.733Z,38.80
2018-07-21T17:28:17.872Z,38.50
2018-07-21T17:31:05.772Z,38.80
2018-07-21T17:36:10.504Z,38.50
2018-07-21T17:38:40.933Z,38.60
2018-07-21T17:41:12.529Z,38.60
2018-07-21T17:43:42.603Z,38.90
2018-07-21T17:46:13.886Z,38.70
2018-07-21T17:48:44.198Z,38.80
2018-07-21T17:51:16.700Z,39.00
2018-07-21T17:53:49.635Z,39.60
2018-07-21T17:56:20.441Z,39.60
2018-07-21T17:58:50.872Z,38.80
2018-07-21T18:01:21.998Z,39.40
2018-07-21T18:03:52.301Z,38.50
2018-07-21T18:06:30.287Z,38.10
2018-07-21T18:09:03.883Z,38.20
2018-07-21T18:11:36.876Z,37.90
2018-07-21T18:14:06.949Z,37.70
2018-07-21T18:16:38.801Z,37.90
2018-07-21T18:19:09.556Z,38.10
2018-07-21T18:21:41.160Z,37.90
2018-07-21T18:24:11.705Z,37.40
2018-07-21T18:26:43.594Z,37.50
2018-07-21T18:29:18.545Z,37.70
2018-07-21T18:31:54.608Z,37.90
2018-07-21T18:34:25.633Z,38.60
2018-07-21T18:36:56.095Z,39.10
2018-07-21T18:39:28.204Z,39.30
2018-07-21T18:41:59.434Z,39.30
2018-07-21T18:47:01.502Z,39.50
2018-07-21T18:49:31.789Z,39.10
2018-07-21T18:52:01.900Z,40.80
2018-07-21T18:54:32.422Z,40.30
2018-07-21T18:57:03.032Z,40.30
2018-07-21T18:59:42.238Z,38.80
2018-07-21T19:02:12.332Z,39.10
2018-07-21T19:07:12.085Z,39.80
2018-07-21T19:09:43.808Z,40.10
2018-07-21T19:14:49.764Z,40.90
2018-07-21T19:17:20.116Z,40.50
2018-07-21T19:20:00.139Z,41.20
2018-07-21T19:22:30.886Z,41.00
2018-07-21T19:25:05.218Z,41.00
2018-07-21T19:27:35.714Z,41.60
2018-07-21T19:30:06.020Z,41.60
2018-07-21T19:35:11.915Z,41.90
2018-07-21T19:37:49.621Z,41.80
2018-07-21T19:40:20.856Z,41.80
2018-07-21T19:42:52.056Z,42.70
2018-07-21T19:45:22.402Z,42.60
2018-07-21T19:47:53.699Z,43.40
2018-07-21T19:50:24.389Z,43.20
2018-07-21T19:52:54.786Z,43.60
2018-07-21T19:55:25.163Z,42.40
2018-07-21T19:57:57.156Z,43.10
2018-07-21T20:00:27.451Z,43.10
2018-07-21T20:03:00.418Z,42.60
2018-07-21T20:05:33.044Z,42.80
2018-07-21T20:08:03.916Z,42.90
2018-07-21T20:13:04.327Z,43.30
2018-07-21T20:15:34.947Z,43.60
2018-07-21T20:18:04.907Z,43.10
2018-07-21T20:20:34.972Z,44.00
2018-07-21T20:23:05.930Z,43.90
2018-07-21T20:25:40.879Z,44.40
2018-07-21T20:30:24.242Z,44.20
2018-07-21T20:32:55.106Z,43.70
2018-07-21T20:35:25.520Z,44.40
2018-07-21T20:37:56.134Z,44.20
2018-07-21T20:42:56.676Z,45.00
2018-07-21T20:45:27.595Z,44.40
2018-07-21T20:47:59.643Z,44.90
2018-07-21T20:50:46.587Z,45.30
2018-07-21T20:53:20.564Z,45.80
2018-07-21T20:55:51.178Z,45.80
2018-07-21T20:58:23.175Z,46.00
2018-07-21T21:03:29.308Z,46.10
2018-07-21T21:06:01.764Z,46.40
2018-07-21T21:08:32.796Z,46.60
2018-07-21T21:11:07.245Z,46.70
2018-07-21T21:13:38.142Z,46.90
2018-07-21T21:16:09.483Z,47.20
2018-07-21T21:18:41.557Z,47.40
2018-07-21T21:21:12.683Z,47.50
2018-07-21T21:28:44.368Z,48.30
2018-07-21T21:33:49.054Z,48.50
2018-07-21T21:36:19.946Z,48.50
2018-07-21T21:38:52.726Z,48.60
2018-07-21T21:41:23.268Z,49.00
2018-07-21T21:43:55.489Z,49.30
2018-07-21T21:46:26.180Z,49.40
2018-07-21T21:48:57.795Z,49.70
2018-07-21T21:51:29.276Z,49.90
2018-07-21T21:54:00.567Z,50.00
2018-07-21T21:56:31.496Z,50.20
2018-07-21T21:59:03.811Z,50.40
2018-07-21T22:01:38.582Z,50.60
2018-07-21T22:04:12.200Z,50.70
2018-07-21T22:06:42.820Z,50.70
2018-07-21T22:09:14.386Z,50.90
2018-07-21T22:11:44.939Z,51.00
2018-07-21T22:14:16.462Z,50.90
2018-07-21T22:16:46.906Z,51.20
2018-07-21T22:19:18.355Z,51.20
2018-07-21T22:21:49.247Z,51.30
2018-07-21T22:24:20.634Z,51.60
2018-07-21T22:26:51.580Z,51.60
2018-07-21T22:29:26.380Z,51.60
2018-07-21T22:31:56.999Z,51.80
2018-07-21T22:34:28.151Z,51.70
2018-07-21T22:36:58.925Z,51.70
2018-07-21T22:39:29.900Z,51.60
2018-07-21T22:42:00.440Z,51.70
2018-07-21T22:44:31.443Z,51.60
2018-07-21T22:47:01.802Z,51.60
2018-07-21T22:49:33.495Z,52.30
2018-07-21T22:52:04.341Z,51.70
2018-07-21T22:57:36.239Z,51.80
2018-07-21T23:00:08.006Z,52.00
2018-07-21T23:02:38.992Z,52.50
2018-07-21T23:05:10.212Z,52.10
2018-07-21T23:07:41.024Z,52.00
2018-07-21T23:10:12.420Z,52.00
2018-07-21T23:12:43.622Z,52.00
2018-07-21T23:17:45.547Z,52.20
2018-07-21T23:20:17.137Z,52.00
2018-07-21T23:22:47.761Z,52.20
2018-07-21T23:25:18.930Z,52.30
2018-07-21T23:27:49.075Z,52.40
2018-07-21T23:30:20.541Z,52.50
2018-07-21T23:32:50.981Z,52.70
2018-07-21T23:35:22.116Z,52.80
2018-07-21T23:37:52.590Z,52.70
2018-07-21T23:40:23.256Z,52.70
2018-07-21T23:42:53.469Z,52.80
2018-07-21T23:45:25.720Z,53.20
2018-07-21T23:47:56.237Z,53.40
2018-07-21T23:50:27.368Z,53.40
2018-07-21T23:52:58.231Z,53.40
2018-07-21T23:55:29.525Z,53.60
2018-07-21T23:58:00.313Z,54.00
